Wilbur Observed Data For Previous 48 Hours

Caption
Day and Hour Reservoir Elevation (behind dam)* Tailwater Elevation (below dam)* Average Hourly Discharge*
4/23/2017 2 AM EDT 1,648.25 1,585.13 1,397
4/23/2017 3 AM EDT 1,648.11 1,585.12 1,395
4/23/2017 4 AM EDT 1,647.97 1,585.11 1,395
4/23/2017 5 AM EDT 1,647.83 1,585.13 1,390
4/23/2017 6 AM EDT 1,647.70 1,585.11 1,390
4/23/2017 7 AM EDT 1,647.64 1,582.69 213
4/23/2017 8 AM EDT 1,647.55 1,582.67 155
4/23/2017 9 AM EDT 1,647.45 1,582.67 155
4/23/2017 10 AM EDT 1,647.35 1,582.66 155
4/23/2017 11 AM EDT 1,647.24 1,582.66 155
4/23/2017 12 PM EDT 1,647.13 1,582.64 155
4/23/2017 1 PM EDT 1,647.05 1,582.64 155
4/23/2017 2 PM EDT 1,647.01 1,582.63 155
4/23/2017 3 PM EDT 1,646.95 1,582.63 155
4/23/2017 4 PM EDT 1,646.91 1,582.64 155
4/23/2017 5 PM EDT 1,646.90 1,582.63 152
4/23/2017 6 PM EDT 1,646.91 1,582.62 152
4/23/2017 7 PM EDT 1,646.92 1,582.62 155
4/23/2017 8 PM EDT 1,646.93 1,582.62 155
4/23/2017 9 PM EDT 1,646.94 1,582.62 155
4/23/2017 10 PM EDT 1,646.95 1,582.62 155
4/23/2017 11 PM EDT 1,646.95 1,582.62 155
4/24/2017 12 AM EDT 1,646.98 1,582.62 155
4/24/2017 1 AM EDT 1,647.02 1,582.62 155
4/24/2017 2 AM EDT 1,647.07 1,582.62 155
4/24/2017 3 AM EDT 1,647.11 1,582.61 155
4/24/2017 4 AM EDT 1,647.17 1,582.62 155
4/24/2017 5 AM EDT 1,647.21 1,582.62 155
4/24/2017 6 AM EDT 1,647.23 1,582.61 155
4/24/2017 7 AM EDT 1,647.23 1,582.60 155
4/24/2017 8 AM EDT 1,647.24 1,582.60 155
4/24/2017 9 AM EDT 1,647.86 1,582.61 156
4/24/2017 10 AM EDT 1,648.72 1,582.64 161
4/24/2017 11 AM EDT 1,648.57 1,582.63 164
4/24/2017 12 PM EDT 1,648.51 1,582.63 160
4/24/2017 1 PM EDT 1,648.46 1,582.63 160
4/24/2017 2 PM EDT 1,648.38 1,582.62 160
4/24/2017 3 PM EDT 1,648.30 1,582.62 160
4/24/2017 4 PM EDT 1,648.23 1,582.61 160
4/24/2017 5 PM EDT 1,648.15 1,582.61 160
4/24/2017 6 PM EDT 1,648.08 1,582.61 160
4/24/2017 7 PM EDT 1,647.98 1,582.61 160
4/24/2017 8 PM EDT 1,647.89 1,582.61 160
4/24/2017 9 PM EDT 1,647.82 1,582.61 160
4/24/2017 10 PM EDT 1,649.15 1,582.64 162
4/24/2017 11 PM EDT 1,649.18 1,582.64 165
4/25/2017 12 AM EDT 1,649.05 1,582.63 165
4/25/2017 1 AM EDT 1,648.94 1,582.63 165
4/25/2017 2 AM EDT 1,648.37 1,585.18 1,486
4/25/2017 3 AM EDT 1,648.21 1,585.13 1,415
4/25/2017 4 AM EDT 1,648.04 1,585.14 1,414

Elevations are in feet above sea level. Discharges are in cubic feet per second and are reported at the end of the hour.